createdAt,value
2022-10-24T00:01:20.859Z,96698.81
2022-10-24T00:03:48.161Z,96686.56
2022-10-24T00:06:15.649Z,96683.97
2022-10-24T00:08:43.404Z,96689.53
2022-10-24T00:11:16.913Z,96690.03
2022-10-24T00:13:43.616Z,96706.13
2022-10-24T00:16:11.506Z,96707.19
2022-10-24T00:18:40.375Z,96684.03
2022-10-24T00:21:07.891Z,96692.81
2022-10-24T00:23:35.144Z,96695.38
2022-10-24T00:26:04.259Z,96680.25
2022-10-24T00:28:36.205Z,96671.22
2022-10-24T00:31:03.736Z,96679.34
2022-10-24T00:33:30.349Z,96684.03
2022-10-24T00:35:59.075Z,96681.81
2022-10-24T00:38:25.743Z,96711.75
2022-10-24T00:40:52.395Z,96712.13
2022-10-24T00:43:22.599Z,96698.97
2022-10-24T00:46:02.338Z,96705.34
2022-10-24T00:48:47.684Z,96709.78
2022-10-24T00:51:27.956Z,96689.47
2022-10-24T00:54:00.865Z,96706.13
2022-10-24T00:56:32.443Z,96721.00
2022-10-24T00:59:02.172Z,96711.22
2022-10-24T01:01:28.858Z,96704.81
2022-10-24T01:03:55.565Z,96713.91
2022-10-24T01:06:46.988Z,96717.06
2022-10-24T01:09:19.601Z,96706.72
2022-10-24T01:11:48.921Z,96711.22
2022-10-24T01:14:45.984Z,96717.38
2022-10-24T01:17:33.901Z,96697.25
2022-10-24T01:20:03.403Z,96694.97
2022-10-24T01:22:59.124Z,96700.78
2022-10-24T01:25:42.283Z,96687.31
2022-10-24T01:28:54.880Z,96696.53
2022-10-24T01:31:32.350Z,96704.28
2022-10-24T01:34:15.704Z,96680.53
2022-10-24T01:36:50.277Z,96680.53
2022-10-24T01:39:19.962Z,96695.44
2022-10-24T01:41:47.716Z,96684.97
2022-10-24T01:44:27.532Z,96681.44
2022-10-24T01:47:04.657Z,96688.75
2022-10-24T01:49:36.566Z,96684.97
2022-10-24T01:52:08.209Z,96667.19
2022-10-24T01:54:37.488Z,96677.38
2022-10-24T01:57:05.596Z,96688.22
2022-10-24T01:59:34.816Z,96679.78
2022-10-24T02:02:08.753Z,96673.13
2022-10-24T02:04:38.789Z,96682.84
2022-10-24T02:07:12.809Z,96688.72
2022-10-24T02:09:43.444Z,96681.50
2022-10-24T02:12:16.502Z,96678.03
2022-10-24T02:14:52.012Z,96684.81
2022-10-24T02:17:18.838Z,96676.34
2022-10-24T02:19:47.089Z,96661.16
2022-10-24T02:22:28.115Z,96659.88
2022-10-24T02:25:02.299Z,96649.19
2022-10-24T02:27:37.836Z,96643.75
2022-10-24T02:30:09.638Z,96649.84
2022-10-24T02:32:41.161Z,96648.72
2022-10-24T02:35:11.656Z,96632.16
2022-10-24T02:37:45.693Z,96646.13
2022-10-24T02:40:14.747Z,96645.34
2022-10-24T02:42:44.500Z,96627.25
2022-10-24T02:45:13.109Z,96629.16
2022-10-24T02:47:42.989Z,96642.06
2022-10-24T02:50:10.448Z,96652.78
2022-10-24T02:52:42.017Z,96634.84
2022-10-24T02:55:09.532Z,96647.84
2022-10-24T02:57:36.795Z,96655.16
2022-10-24T03:00:04.250Z,96639.06
2022-10-24T03:02:31.087Z,96644.75
2022-10-24T03:04:57.724Z,96647.94
2022-10-24T03:07:24.319Z,96641.59
2022-10-24T03:09:50.996Z,96625.81
2022-10-24T03:12:17.843Z,96642.19
2022-10-24T03:14:45.752Z,96643.63
2022-10-24T03:17:12.980Z,96633.06
2022-10-24T03:19:39.596Z,96623.72
2022-10-24T03:22:06.220Z,96625.94
2022-10-24T03:24:44.041Z,96617.03
2022-10-24T03:27:11.685Z,96607.44
2022-10-24T03:29:38.415Z,96615.56
2022-10-24T03:32:05.732Z,96613.19
2022-10-24T03:34:32.692Z,96601.63
2022-10-24T03:36:59.444Z,96608.47
2022-10-24T03:39:26.536Z,96609.31
2022-10-24T03:41:53.236Z,96592.78
2022-10-24T03:44:19.825Z,96592.56
2022-10-24T03:46:46.393Z,96593.47
2022-10-24T03:49:12.984Z,96593.47
2022-10-24T03:51:39.592Z,96572.25
2022-10-24T03:54:06.256Z,96579.81
2022-10-24T03:56:36.243Z,96581.50
2022-10-24T03:59:03.624Z,96580.06
2022-10-24T04:01:30.368Z,96581.91
2022-10-24T04:03:57.127Z,96592.50
2022-10-24T04:06:23.862Z,96593.81
2022-10-24T04:08:50.436Z,96579.09
2022-10-24T04:11:17.085Z,96599.81
2022-10-24T04:13:46.092Z,96601.13
2022-10-24T04:16:12.673Z,96582.66
2022-10-24T04:18:39.269Z,96590.91
2022-10-24T04:21:06.668Z,96595.91
2022-10-24T04:23:35.817Z,96590.00
2022-10-24T04:26:02.404Z,96574.41
2022-10-24T04:28:30.311Z,96580.72
2022-10-24T04:30:57.629Z,96587.06
2022-10-24T04:33:24.894Z,96579.53
2022-10-24T04:35:52.576Z,96580.94
2022-10-24T04:38:19.706Z,96594.03
2022-10-24T04:40:50.940Z,96599.72
2022-10-24T04:43:18.330Z,96600.31
2022-10-24T04:45:45.233Z,96613.72
2022-10-24T04:48:11.996Z,96615.94
2022-10-24T04:50:40.580Z,96605.06
2022-10-24T04:53:07.500Z,96610.84
2022-10-24T04:58:05.960Z,96609.16
2022-10-24T05:00:34.575Z,96590.56
2022-10-24T05:03:01.191Z,96594.00
2022-10-24T05:05:28.096Z,96594.97
2022-10-24T05:07:54.758Z,96585.34
2022-10-24T05:10:21.449Z,96573.31
2022-10-24T05:12:48.393Z,96564.28
2022-10-24T05:15:15.119Z,96558.81
2022-10-24T05:17:41.944Z,96536.84
2022-10-24T05:20:09.242Z,96548.94
2022-10-24T05:22:35.939Z,96553.38
2022-10-24T05:25:03.293Z,96544.69
2022-10-24T05:27:30.047Z,96547.56
2022-10-24T05:29:56.700Z,96554.44
2022-10-24T05:32:24.124Z,96547.56
2022-10-24T05:34:53.575Z,96531.06
2022-10-24T05:37:20.421Z,96535.31
2022-10-24T05:39:49.264Z,96518.97
2022-10-24T05:42:16.349Z,96513.41
2022-10-24T05:44:45.089Z,96500.66
2022-10-24T05:47:11.777Z,96503.56
2022-10-24T05:49:38.620Z,96487.03
2022-10-24T05:52:05.447Z,96476.72
2022-10-24T05:54:42.516Z,96480.66
2022-10-24T05:57:21.769Z,96475.03
2022-10-24T05:59:49.620Z,96454.84
2022-10-24T06:02:20.633Z,96470.66
2022-10-24T06:04:48.561Z,96463.72
2022-10-24T06:07:15.378Z,96447.78
2022-10-24T06:09:44.724Z,96457.19
2022-10-24T06:12:12.144Z,96456.31
2022-10-24T06:14:40.283Z,96440.63
2022-10-24T06:17:09.255Z,96443.06
2022-10-24T06:19:37.098Z,96450.47
2022-10-24T06:22:04.883Z,96447.13
2022-10-24T06:24:31.549Z,96437.22
2022-10-24T06:27:00.553Z,96448.34
2022-10-24T06:29:27.172Z,96444.31
2022-10-24T06:31:53.795Z,96430.38
2022-10-24T06:36:47.842Z,96453.38
2022-10-24T06:39:14.404Z,96436.53
2022-10-24T06:41:41.169Z,96431.34
2022-10-24T06:44:10.974Z,96433.84
2022-10-24T06:46:38.319Z,96444.31
2022-10-24T06:49:05.075Z,96430.97
2022-10-24T06:51:31.871Z,96444.53
2022-10-24T06:53:59.127Z,96443.84
2022-10-24T06:56:26.904Z,96427.50
2022-10-24T06:58:54.138Z,96444.47
2022-10-24T07:01:25.238Z,96455.03
2022-10-24T07:03:53.024Z,96445.97
2022-10-24T07:06:23.945Z,96455.06
2022-10-24T07:08:51.968Z,96465.63
2022-10-24T07:11:19.088Z,96466.28
2022-10-24T07:13:45.623Z,96470.78
2022-10-24T07:16:12.577Z,96479.81
2022-10-24T07:18:39.335Z,96475.56
2022-10-24T07:21:08.836Z,96479.59
2022-10-24T07:23:35.846Z,96485.56
2022-10-24T07:26:05.144Z,96483.84
2022-10-24T07:28:32.164Z,96475.94
2022-10-24T07:30:59.615Z,96485.31
2022-10-24T07:33:26.659Z,96489.56
2022-10-24T07:35:53.556Z,96484.63
2022-10-24T07:38:20.596Z,96489.72
2022-10-24T07:40:47.535Z,96498.91
2022-10-24T07:43:14.785Z,96484.00
2022-10-24T07:45:42.496Z,96503.38
2022-10-24T07:48:10.444Z,96512.03
2022-10-24T07:50:44.112Z,96508.66
2022-10-24T07:53:12.073Z,96513.09
2022-10-24T07:55:43.500Z,96520.63
2022-10-24T07:58:11.970Z,96506.50
2022-10-24T08:00:44.824Z,96517.97
2022-10-24T08:03:12.010Z,96514.56
2022-10-24T08:05:40.176Z,96509.19
2022-10-24T08:10:53.995Z,96514.56
2022-10-24T08:13:20.702Z,96498.78
2022-10-24T08:15:47.387Z,96498.78
2022-10-24T08:18:14.016Z,96498.19
2022-10-24T08:20:40.689Z,96487.41
2022-10-24T08:23:07.395Z,96482.91
2022-10-24T08:25:34.245Z,96484.44
2022-10-24T08:28:02.828Z,96468.50
2022-10-24T08:30:32.093Z,96456.59
2022-10-24T08:32:58.696Z,96459.03
2022-10-24T08:35:25.873Z,96451.81
2022-10-24T08:37:55.676Z,96442.53
2022-10-24T08:40:22.316Z,96451.56
2022-10-24T08:42:49.616Z,96442.28
2022-10-24T08:45:28.996Z,96420.44
2022-10-24T08:48:08.483Z,96433.16
2022-10-24T08:50:36.847Z,96430.22
2022-10-24T08:53:31.693Z,96409.84
2022-10-24T08:56:03.665Z,96426.81
2022-10-24T08:58:46.193Z,96418.81
2022-10-24T09:01:32.923Z,96407.59
2022-10-24T09:04:05.105Z,96414.19
2022-10-24T09:06:33.367Z,96402.03
2022-10-24T09:09:00.775Z,96387.03
2022-10-24T09:11:30.387Z,96396.66
2022-10-24T09:14:01.407Z,96384.75
2022-10-24T09:16:28.103Z,96373.59
2022-10-24T09:18:57.212Z,96376.06
2022-10-24T09:21:24.516Z,96368.34
2022-10-24T09:23:51.863Z,96347.25
2022-10-24T09:26:31.204Z,96358.56
2022-10-24T09:28:58.493Z,96357.69
2022-10-24T09:31:29.211Z,96337.28
2022-10-24T09:33:56.673Z,96344.13
2022-10-24T09:36:25.107Z,96331.72
2022-10-24T09:38:52.124Z,96317.81
2022-10-24T09:41:33.817Z,96318.88
2022-10-24T09:44:01.594Z,96314.06
2022-10-24T09:46:45.481Z,96312.16
2022-10-24T09:49:20.024Z,96303.56
2022-10-24T09:51:48.012Z,96308.41
2022-10-24T09:54:20.408Z,96296.50
2022-10-24T09:56:57.556Z,96283.81
2022-10-24T09:59:42.785Z,96271.09
2022-10-24T10:02:27.389Z,96272.94
2022-10-24T10:05:03.021Z,96254.09
2022-10-24T10:07:34.848Z,96238.59
2022-10-24T10:10:08.049Z,96250.06
2022-10-24T10:12:40.555Z,96251.06
2022-10-24T10:15:28.223Z,96242.28
2022-10-24T10:18:00.019Z,96227.94
2022-10-24T10:20:44.686Z,96234.63
2022-10-24T10:23:25.501Z,96233.00
2022-10-24T10:26:02.602Z,96221.63
2022-10-24T10:28:29.301Z,96204.13
2022-10-24T10:30:59.696Z,96205.53
2022-10-24T10:33:58.245Z,96205.53
2022-10-24T10:36:32.119Z,96185.75
2022-10-24T10:39:16.187Z,96185.03
2022-10-24T10:42:25.731Z,96180.31
2022-10-24T10:45:13.896Z,96181.91
2022-10-24T10:48:08.922Z,96153.66
2022-10-24T10:50:41.270Z,96168.91
2022-10-24T10:53:38.748Z,96158.84
2022-10-24T10:56:11.361Z,96153.97
2022-10-24T10:58:52.012Z,96146.47
2022-10-24T11:01:31.466Z,96148.22
2022-10-24T11:04:08.478Z,96135.88
2022-10-24T11:09:45.435Z,96119.16
2022-10-24T11:12:22.928Z,96112.19
2022-10-24T11:15:14.882Z,96101.53
2022-10-24T11:18:18.023Z,96087.81
2022-10-24T11:21:05.858Z,96099.25
2022-10-24T11:23:39.230Z,96090.44
2022-10-24T11:26:13.718Z,96077.50
2022-10-24T11:29:15.351Z,96089.28
2022-10-24T11:32:17.944Z,96093.13
2022-10-24T11:34:56.232Z,96068.66
2022-10-24T11:37:45.469Z,96076.22
2022-10-24T11:40:20.451Z,96073.22
2022-10-24T11:42:56.179Z,96075.56
2022-10-24T11:45:39.388Z,96079.28
2022-10-24T11:48:16.863Z,96068.50
2022-10-24T11:50:59.668Z,96060.09
2022-10-24T11:53:29.078Z,96060.75
2022-10-24T11:56:00.613Z,96053.88
2022-10-24T11:58:32.209Z,96032.47
2022-10-24T12:01:30.232Z,96050.03
2022-10-24T12:04:19.685Z,96056.41
2022-10-24T12:07:07.952Z,96031.97
2022-10-24T12:09:56.164Z,96038.41
2022-10-24T12:12:36.007Z,96034.44
2022-10-24T12:15:39.054Z,96018.44
2022-10-24T12:18:34.812Z,96021.81
2022-10-24T12:21:11.200Z,96023.66
2022-10-24T12:23:39.904Z,96017.66
2022-10-24T12:26:25.062Z,96006.88
2022-10-24T12:29:03.705Z,96006.38
2022-10-24T12:31:34.983Z,96007.56
2022-10-24T12:34:39.117Z,95996.09
2022-10-24T12:37:18.672Z,96011.31
2022-10-24T12:39:51.013Z,96009.00
2022-10-24T12:42:22.109Z,95990.38
2022-10-24T12:44:53.553Z,95997.53
2022-10-24T12:47:29.249Z,95999.72
2022-10-24T12:49:56.820Z,95986.81
2022-10-24T12:52:46.836Z,95992.94
2022-10-24T12:55:39.795Z,95992.41
2022-10-24T12:58:28.046Z,95987.06
2022-10-24T13:00:58.211Z,95980.22
2022-10-24T13:03:53.718Z,95986.63
2022-10-24T13:06:32.580Z,95972.81
2022-10-24T13:09:05.326Z,95969.06
2022-10-24T13:12:06.721Z,95972.00
2022-10-24T13:14:55.791Z,95962.81
2022-10-24T13:17:40.508Z,95959.09
2022-10-24T13:20:23.962Z,95969.66
2022-10-24T13:22:51.560Z,95965.06
2022-10-24T13:25:39.381Z,95944.84
2022-10-24T13:28:24.046Z,95956.22
2022-10-24T13:30:59.511Z,95955.03
2022-10-24T13:33:28.808Z,95939.75
2022-10-24T13:36:14.798Z,95937.47
2022-10-24T13:38:49.353Z,95941.97
2022-10-24T13:41:36.163Z,95936.53
2022-10-24T13:44:10.287Z,95927.47
2022-10-24T13:46:57.181Z,95929.69
2022-10-24T13:49:33.870Z,95928.13
2022-10-24T13:52:08.282Z,95919.81
2022-10-24T13:54:38.348Z,95917.03
2022-10-24T13:57:23.745Z,95913.50
2022-10-24T13:59:57.693Z,95896.69
2022-10-24T14:02:29.898Z,95895.16
2022-10-24T14:04:59.119Z,95909.69
2022-10-24T14:07:31.575Z,95894.38
2022-10-24T14:10:14.352Z,95897.09
2022-10-24T14:12:41.618Z,95890.44
2022-10-24T14:15:19.352Z,95898.56
2022-10-24T14:17:54.935Z,95883.28
2022-10-24T14:20:29.167Z,95894.38
2022-10-24T14:22:56.114Z,95897.38
2022-10-24T14:25:24.415Z,95882.13
2022-10-24T14:27:53.576Z,95886.72
2022-10-24T14:30:23.336Z,95886.28
2022-10-24T14:33:06.960Z,95886.31
2022-10-24T14:35:34.089Z,95883.31
2022-10-24T14:38:06.157Z,95881.25
2022-10-24T14:40:37.751Z,95888.97
2022-10-24T14:43:04.920Z,95871.38
2022-10-24T14:45:32.095Z,95877.06
2022-10-24T14:47:59.539Z,95871.63
2022-10-24T14:50:39.748Z,95868.97
2022-10-24T14:53:07.051Z,95859.03
2022-10-24T14:55:35.653Z,95873.16
2022-10-24T14:58:03.159Z,95873.16
2022-10-24T15:00:38.048Z,95856.72
2022-10-24T15:03:04.639Z,95858.94
2022-10-24T15:05:40.068Z,95866.22
2022-10-24T15:08:28.156Z,95849.00
2022-10-24T15:11:16.255Z,95850.84
2022-10-24T15:14:05.238Z,95860.41
2022-10-24T15:16:37.699Z,95854.34
2022-10-24T15:19:06.220Z,95854.34
2022-10-24T15:21:38.863Z,95858.91
2022-10-24T15:24:06.278Z,95853.50
2022-10-24T15:26:40.994Z,95851.31
2022-10-24T15:29:13.361Z,95854.66
2022-10-24T15:31:42.839Z,95853.50
2022-10-24T15:34:15.024Z,95844.78
2022-10-24T15:36:43.603Z,95848.16
2022-10-24T15:39:10.162Z,95852.72
2022-10-24T15:41:38.669Z,95829.38
2022-10-24T15:44:22.020Z,95839.31
2022-10-24T15:46:48.943Z,95837.31
2022-10-24T15:49:15.889Z,95833.50
2022-10-24T15:51:48.925Z,95828.19
2022-10-24T15:54:19.702Z,95838.88
2022-10-24T15:56:47.208Z,95831.56
2022-10-24T15:59:15.062Z,95809.72
2022-10-24T16:01:47.583Z,95815.78
2022-10-24T16:04:18.343Z,95821.13
2022-10-24T16:06:45.031Z,95804.31
2022-10-24T16:09:23.792Z,95803.50
2022-10-24T16:11:52.590Z,95814.22
2022-10-24T16:14:21.172Z,95806.59
2022-10-24T16:16:47.945Z,95797.41
2022-10-24T16:19:14.941Z,95803.44
2022-10-24T16:21:42.082Z,95792.66
2022-10-24T16:24:09.964Z,95776.59
2022-10-24T16:26:36.692Z,95791.16
2022-10-24T16:29:03.692Z,95784.56
2022-10-24T16:31:31.364Z,95775.44
2022-10-24T16:33:58.536Z,95769.63
2022-10-24T16:36:25.179Z,95770.31
2022-10-24T16:38:52.115Z,95771.53
2022-10-24T16:41:22.835Z,95753.13
2022-10-24T16:43:50.029Z,95755.75
2022-10-24T16:46:20.156Z,95756.53
2022-10-24T16:48:47.355Z,95736.63
2022-10-24T16:51:17.780Z,95743.44
2022-10-24T16:53:44.439Z,95740.72
2022-10-24T16:56:13.121Z,95741.19
2022-10-24T16:58:41.046Z,95727.38
2022-10-24T17:01:14.026Z,95739.59
2022-10-24T17:03:41.023Z,95728.81
2022-10-24T17:06:10.187Z,95718.91
2022-10-24T17:08:37.045Z,95726.91
2022-10-24T17:11:20.192Z,95729.97
2022-10-24T17:13:54.510Z,95712.75
2022-10-24T17:16:23.525Z,95712.66
2022-10-24T17:19:05.167Z,95718.81
2022-10-24T17:21:36.844Z,95711.25
2022-10-24T17:24:03.612Z,95700.38
2022-10-24T17:26:30.406Z,95707.31
2022-10-24T17:28:57.044Z,95698.09
2022-10-24T17:31:23.799Z,95690.03
2022-10-24T17:33:50.653Z,95694.59
2022-10-24T17:36:26.516Z,95694.25
2022-10-24T17:38:59.929Z,95675.03
2022-10-24T17:41:30.967Z,95683.44
2022-10-24T17:43:57.788Z,95687.69
2022-10-24T17:46:24.631Z,95664.22
2022-10-24T17:48:53.484Z,95677.31
2022-10-24T17:51:23.535Z,95674.97
2022-10-24T17:53:50.158Z,95658.81
2022-10-24T17:56:19.443Z,95656.91
2022-10-24T17:58:51.152Z,95666.91
2022-10-24T18:01:17.883Z,95660.34
2022-10-24T18:03:46.612Z,95650.38
2022-10-24T18:06:14.716Z,95655.75
2022-10-24T18:08:41.671Z,95649.97
2022-10-24T18:11:12.963Z,95641.91
2022-10-24T18:13:40.260Z,95640.31
2022-10-24T18:16:11.496Z,95647.25
2022-10-24T18:18:42.249Z,95634.56
2022-10-24T18:21:25.112Z,95632.59
2022-10-24T18:23:52.716Z,95633.34
2022-10-24T18:26:22.796Z,95619.13
2022-10-24T18:28:51.947Z,95617.97
2022-10-24T18:31:21.083Z,95622.56
2022-10-24T18:33:50.760Z,95615.63
2022-10-24T18:36:26.729Z,95605.66
2022-10-24T18:39:00.800Z,95611.75
2022-10-24T18:41:56.742Z,95611.75
2022-10-24T18:44:33.417Z,95597.16
2022-10-24T18:47:03.114Z,95598.66
2022-10-24T18:49:31.073Z,95599.44
2022-10-24T18:52:14.795Z,95579.81
2022-10-24T18:54:55.064Z,95585.56
2022-10-24T18:57:27.931Z,95584.75
2022-10-24T18:59:57.284Z,95568.19
2022-10-24T19:02:23.817Z,95574.78
2022-10-24T19:04:59.924Z,95573.97
2022-10-24T19:07:26.604Z,95570.16
2022-10-24T19:09:53.375Z,95563.22
2022-10-24T19:12:20.048Z,95569.34
2022-10-24T19:14:46.836Z,95560.88
2022-10-24T19:17:16.163Z,95550.47
2022-10-24T19:19:43.209Z,95556.25
2022-10-24T19:22:09.896Z,95560.47
2022-10-24T19:24:36.545Z,95547.00
2022-10-24T19:27:03.245Z,95545.47
2022-10-24T19:29:29.923Z,95553.94
2022-10-24T19:31:57.101Z,95542.38
2022-10-24T19:34:23.649Z,95540.03
2022-10-24T19:36:50.220Z,95540.81
2022-10-24T19:39:16.799Z,95530.81
2022-10-24T19:41:43.494Z,95522.31
2022-10-24T19:44:10.167Z,95526.56
2022-10-24T19:46:36.783Z,95521.56
2022-10-24T19:49:03.883Z,95508.44
2022-10-24T19:51:30.475Z,95510.75
2022-10-24T19:53:57.207Z,95511.53
2022-10-24T19:56:26.318Z,95492.22
2022-10-24T19:58:55.449Z,95496.47
2022-10-24T20:01:24.789Z,95494.56
2022-10-24T20:03:52.473Z,95489.13
2022-10-24T20:06:19.591Z,95483.34
2022-10-24T20:08:49.513Z,95486.06
2022-10-24T20:11:16.890Z,95475.25
2022-10-24T20:13:46.043Z,95466.75
2022-10-24T20:16:13.485Z,95457.50
2022-10-24T20:21:11.133Z,95451.28
2022-10-24T20:23:39.400Z,95455.94
2022-10-24T20:26:12.376Z,95449.78
2022-10-24T20:28:43.183Z,95435.47
2022-10-24T20:31:19.920Z,95435.88
2022-10-24T20:33:46.581Z,95426.63
2022-10-24T20:36:13.353Z,95426.19
2022-10-24T20:38:39.984Z,95428.19
2022-10-24T20:41:06.619Z,95416.94
2022-10-24T20:43:33.235Z,95406.53
2022-10-24T20:46:03.000Z,95413.50
2022-10-24T20:48:31.551Z,95409.22
2022-10-24T20:51:09.795Z,95398.78
2022-10-24T20:53:37.525Z,95405.75
2022-10-24T20:56:06.652Z,95395.72
2022-10-24T20:58:36.871Z,95394.16
2022-10-24T21:01:11.677Z,95404.59
2022-10-24T21:03:40.888Z,95389.16
2022-10-24T21:06:25.416Z,95380.25
2022-10-24T21:08:56.637Z,95378.34
2022-10-24T21:11:27.493Z,95366.38
2022-10-24T21:13:59.411Z,95361.75
2022-10-24T21:16:26.881Z,95373.34
2022-10-24T21:18:54.216Z,95364.06
2022-10-24T21:21:24.264Z,95359.81
2022-10-24T21:23:53.131Z,95324.72
2022-10-24T21:26:20.558Z,95312.34
2022-10-24T21:28:47.168Z,95303.06
2022-10-24T21:31:16.532Z,95307.75
2022-10-24T21:33:43.569Z,95296.09
2022-10-24T21:36:14.268Z,95290.69
2022-10-24T21:38:42.549Z,95293.84
2022-10-24T21:41:10.485Z,95287.56
2022-10-24T21:43:42.220Z,95296.13
2022-10-24T21:46:09.999Z,95296.53
2022-10-24T21:48:39.293Z,95275.22
2022-10-24T21:51:07.414Z,95282.94
2022-10-24T21:53:45.548Z,95286.09
2022-10-24T21:56:14.588Z,95276.72
2022-10-24T21:58:46.127Z,95279.09
2022-10-24T22:01:16.017Z,95283.78
2022-10-24T22:03:43.373Z,95269.78
2022-10-24T22:06:15.992Z,95272.91
2022-10-24T22:08:44.853Z,95277.59
2022-10-24T22:11:14.231Z,95258.97
2022-10-24T22:13:43.657Z,95258.22
2022-10-24T22:16:12.072Z,95258.25
2022-10-24T22:18:39.795Z,95253.50
2022-10-24T22:21:09.865Z,95244.69
2022-10-24T22:23:37.111Z,95255.91
2022-10-24T22:26:04.669Z,95238.03
2022-10-24T22:28:31.431Z,95253.56
2022-10-24T22:30:58.464Z,95242.78
2022-10-24T22:33:34.229Z,95224.13
2022-10-24T22:36:12.087Z,95237.34
2022-10-24T22:38:38.950Z,95231.88
2022-10-24T22:41:06.006Z,95217.94
2022-10-24T22:43:33.925Z,95235.81
2022-10-24T22:46:27.287Z,95233.50
2022-10-24T22:48:59.897Z,95214.84
2022-10-24T22:51:29.292Z,95218.38
2022-10-24T22:53:56.183Z,95214.13
2022-10-24T22:56:33.311Z,95204.78
2022-10-24T22:59:01.605Z,95216.44
2022-10-24T23:02:15.898Z,95210.22
2022-10-24T23:04:59.944Z,95206.38
2022-10-24T23:07:35.081Z,95213.41
2022-10-24T23:10:01.750Z,95202.50
2022-10-24T23:12:28.656Z,95197.13
2022-10-24T23:14:55.548Z,95197.53
2022-10-24T23:17:28.274Z,95187.78
2022-10-24T23:19:58.769Z,95180.50
2022-10-24T23:22:34.832Z,95180.53
2022-10-24T23:25:01.992Z,95168.44
2022-10-24T23:27:40.039Z,95167.38
2022-10-24T23:30:10.164Z,95167.78
2022-10-24T23:32:41.284Z,95149.91
2022-10-24T23:35:09.027Z,95156.19
2022-10-24T23:37:43.888Z,95150.00
2022-10-24T23:40:29.170Z,95148.38
2022-10-24T23:42:58.863Z,95146.16
2022-10-24T23:45:37.260Z,95142.63
2022-10-24T23:48:23.574Z,95132.94
2022-10-24T23:51:10.289Z,95139.97
2022-10-24T23:53:36.880Z,95126.75
2022-10-24T23:56:03.911Z,95131.00
2022-10-24T23:58:30.561Z,95128.34
